sensor_id;sensor_type;location;lat;lon;timestamp;pressure;altitude;pressure_sealevel;temperature;humidity
52855;BME280;38719;51.418;7.286;2022-11-25T00:00:11;99380.63;;;8.66;70.56
52855;BME280;38719;51.418;7.286;2022-11-25T00:02:43;99374.44;;;8.66;70.95
52855;BME280;38719;51.418;7.286;2022-11-25T00:05:11;99364.41;;;8.73;70.30
52855;BME280;38719;51.418;7.286;2022-11-25T00:07:38;99364.41;;;8.73;70.52
52855;BME280;38719;51.418;7.286;2022-11-25T00:10:07;99352.78;;;8.75;70.60
52855;BME280;38719;51.418;7.286;2022-11-25T00:12:34;99362.81;;;8.68;71.16
52855;BME280;38719;51.418;7.286;2022-11-25T00:15:02;99360.22;;;8.67;71.56
52855;BME280;38719;51.418;7.286;2022-11-25T00:17:30;99359.72;;;8.78;71.38
52855;BME280;38719;51.418;7.286;2022-11-25T00:19:59;99351.47;;;8.84;70.79
52855;BME280;38719;51.418;7.286;2022-11-25T00:22:29;99344.72;;;8.77;70.45
52855;BME280;38719;51.418;7.286;2022-11-25T00:24:57;99329.66;;;8.77;70.79
52855;BME280;38719;51.418;7.286;2022-11-25T00:27:24;99334.81;;;8.80;71.13
52855;BME280;38719;51.418;7.286;2022-11-25T00:29:52;99337.56;;;8.79;71.24
52855;BME280;38719;51.418;7.286;2022-11-25T00:32:19;99334.53;;;8.86;70.65
52855;BME280;38719;51.418;7.286;2022-11-25T00:34:47;99348.19;;;8.79;71.39
52855;BME280;38719;51.418;7.286;2022-11-25T00:37:15;99337.19;;;8.86;71.06
52855;BME280;38719;51.418;7.286;2022-11-25T00:39:43;99328.88;;;8.75;71.50
52855;BME280;38719;51.418;7.286;2022-11-25T00:42:10;99317.38;;;8.94;70.27
52855;BME280;38719;51.418;7.286;2022-11-25T00:44:56;99324.50;;;8.74;71.52
52855;BME280;38719;51.418;7.286;2022-11-25T00:47:23;99322.25;;;8.65;71.09
52855;BME280;38719;51.418;7.286;2022-11-25T00:49:52;99327.25;;;8.73;71.62
52855;BME280;38719;51.418;7.286;2022-11-25T00:52:23;99326.94;;;8.79;71.13
52855;BME280;38719;51.418;7.286;2022-11-25T00:54:52;99325.34;;;8.75;71.61
52855;BME280;38719;51.418;7.286;2022-11-25T00:57:22;99325.50;;;8.71;71.48
52855;BME280;38719;51.418;7.286;2022-11-25T00:59:49;99328.94;;;8.74;71.75
52855;BME280;38719;51.418;7.286;2022-11-25T01:02:17;99330.38;;;8.81;71.38
52855;BME280;38719;51.418;7.286;2022-11-25T01:04:45;99332.81;;;8.85;71.16
52855;BME280;38719;51.418;7.286;2022-11-25T01:07:13;99325.22;;;8.78;71.85
52855;BME280;38719;51.418;7.286;2022-11-25T01:09:42;99329.88;;;8.73;72.02
52855;BME280;38719;51.418;7.286;2022-11-25T01:12:10;99334.41;;;8.70;71.62
52855;BME280;38719;51.418;7.286;2022-11-25T01:14:37;99326.44;;;8.70;72.54
52855;BME280;38719;51.418;7.286;2022-11-25T01:17:05;99318.09;;;8.78;71.73
52855;BME280;38719;51.418;7.286;2022-11-25T01:19:33;99324.94;;;8.84;71.83
52855;BME280;38719;51.418;7.286;2022-11-25T01:22:05;99330.66;;;8.75;72.64
52855;BME280;38719;51.418;7.286;2022-11-25T01:24:33;99330.53;;;8.78;72.31
52855;BME280;38719;51.418;7.286;2022-11-25T01:27:03;99330.22;;;8.65;72.86
52855;BME280;38719;51.418;7.286;2022-11-25T01:29:30;99328.25;;;8.70;72.71
52855;BME280;38719;51.418;7.286;2022-11-25T01:31:58;99326.16;;;8.77;72.82
52855;BME280;38719;51.418;7.286;2022-11-25T01:34:26;99326.94;;;8.79;72.77
52855;BME280;38719;51.418;7.286;2022-11-25T01:36:57;99325.63;;;8.68;72.55
52855;BME280;38719;51.418;7.286;2022-11-25T01:39:25;99309.66;;;8.70;72.60
52855;BME280;38719;51.418;7.286;2022-11-25T01:41:58;99316.75;;;8.69;72.79
52855;BME280;38719;51.418;7.286;2022-11-25T01:44:28;99315.81;;;8.70;72.34
52855;BME280;38719;51.418;7.286;2022-11-25T01:47:00;99322.06;;;8.69;73.39
52855;BME280;38719;51.418;7.286;2022-11-25T01:49:32;99320.13;;;8.73;73.05
52855;BME280;38719;51.418;7.286;2022-11-25T01:52:08;99324.59;;;8.73;72.04
52855;BME280;38719;51.418;7.286;2022-11-25T01:54:42;99325.50;;;8.71;72.48
52855;BME280;38719;51.418;7.286;2022-11-25T01:57:16;99331.53;;;8.56;73.69
52855;BME280;38719;51.418;7.286;2022-11-25T01:59:50;99313.59;;;8.61;73.82
52855;BME280;38719;51.418;7.286;2022-11-25T02:02:19;99320.56;;;8.64;73.66
52855;BME280;38719;51.418;7.286;2022-11-25T02:04:47;99306.50;;;8.62;73.51
52855;BME280;38719;51.418;7.286;2022-11-25T02:07:19;99308.28;;;8.61;73.00
52855;BME280;38719;51.418;7.286;2022-11-25T02:09:50;99314.75;;;8.55;73.74
52855;BME280;38719;51.418;7.286;2022-11-25T02:12:19;99308.34;;;8.60;73.70
52855;BME280;38719;51.418;7.286;2022-11-25T02:14:50;99312.81;;;8.59;73.50
52855;BME280;38719;51.418;7.286;2022-11-25T02:17:18;99310.28;;;8.56;73.52
52855;BME280;38719;51.418;7.286;2022-11-25T02:19:55;99305.16;;;8.53;73.80
52855;BME280;38719;51.418;7.286;2022-11-25T02:22:33;99298.91;;;8.54;73.93
52855;BME280;38719;51.418;7.286;2022-11-25T02:25:16;99307.50;;;8.59;74.29
52855;BME280;38719;51.418;7.286;2022-11-25T02:27:46;99288.13;;;8.57;74.00
52855;BME280;38719;51.418;7.286;2022-11-25T02:30:16;99294.78;;;8.66;74.29
52855;BME280;38719;51.418;7.286;2022-11-25T02:32:44;99296.81;;;8.61;74.06
52855;BME280;38719;51.418;7.286;2022-11-25T02:35:33;99300.25;;;8.63;74.14
52855;BME280;38719;51.418;7.286;2022-11-25T02:38:06;99298.53;;;8.62;73.96
52855;BME280;38719;51.418;7.286;2022-11-25T02:40:40;99294.25;;;8.59;74.43
52855;BME280;38719;51.418;7.286;2022-11-25T02:43:10;99291.44;;;8.62;74.46
52855;BME280;38719;51.418;7.286;2022-11-25T02:45:52;99282.91;;;8.55;74.31
52855;BME280;38719;51.418;7.286;2022-11-25T02:48:22;99287.72;;;8.66;73.58
52855;BME280;38719;51.418;7.286;2022-11-25T02:51:12;99293.22;;;8.62;74.33
52855;BME280;38719;51.418;7.286;2022-11-25T02:53:41;99287.22;;;8.58;74.44
52855;BME280;38719;51.418;7.286;2022-11-25T02:56:11;99291.09;;;8.70;74.45
52855;BME280;38719;51.418;7.286;2022-11-25T02:58:40;99283.03;;;8.71;74.27
52855;BME280;38719;51.418;7.286;2022-11-25T03:01:07;99282.03;;;8.74;74.25
52855;BME280;38719;51.418;7.286;2022-11-25T03:03:36;99288.34;;;8.71;74.12
52855;BME280;38719;51.418;7.286;2022-11-25T03:06:04;99280.84;;;8.80;73.57
52855;BME280;38719;51.418;7.286;2022-11-25T03:08:31;99274.56;;;8.82;73.40
52855;BME280;38719;51.418;7.286;2022-11-25T03:10:59;99277.56;;;8.75;74.53
52855;BME280;38719;51.418;7.286;2022-11-25T03:13:28;99275.78;;;8.75;74.11
52855;BME280;38719;51.418;7.286;2022-11-25T03:15:55;99269.50;;;8.95;73.34
52855;BME280;38719;51.418;7.286;2022-11-25T03:18:23;99278.69;;;8.88;73.54
52855;BME280;38719;51.418;7.286;2022-11-25T03:20:51;99288.88;;;8.97;73.74
52855;BME280;38719;51.418;7.286;2022-11-25T03:23:18;99283.56;;;8.97;73.55
52855;BME280;38719;51.418;7.286;2022-11-25T03:25:46;99290.44;;;9.01;73.15
52855;BME280;38719;51.418;7.286;2022-11-25T03:28:14;99295.75;;;9.01;73.04
52855;BME280;38719;51.418;7.286;2022-11-25T03:30:43;99305.44;;;9.02;72.84
52855;BME280;38719;51.418;7.286;2022-11-25T03:33:10;99290.09;;;8.90;73.50
52855;BME280;38719;51.418;7.286;2022-11-25T03:35:38;99293.72;;;9.07;73.01
52855;BME280;38719;51.418;7.286;2022-11-25T03:38:05;99307.47;;;8.97;73.36
52855;BME280;38719;51.418;7.286;2022-11-25T03:40:33;99306.06;;;9.08;73.33
52855;BME280;38719;51.418;7.286;2022-11-25T03:43:00;99315.84;;;9.07;72.79
52855;BME280;38719;51.418;7.286;2022-11-25T03:45:28;99312.19;;;9.10;72.94
52855;BME280;38719;51.418;7.286;2022-11-25T03:47:57;99309.69;;;9.24;71.77
52855;BME280;38719;51.418;7.286;2022-11-25T03:50:24;99316.09;;;9.20;72.86
52855;BME280;38719;51.418;7.286;2022-11-25T03:52:52;99317.09;;;9.17;72.70
52855;BME280;38719;51.418;7.286;2022-11-25T03:55:19;99314.59;;;9.14;73.02
52855;BME280;38719;51.418;7.286;2022-11-25T03:57:46;99314.06;;;9.25;73.21
52855;BME280;38719;51.418;7.286;2022-11-25T04:00:14;99318.84;;;9.18;73.28
52855;BME280;38719;51.418;7.286;2022-11-25T04:02:42;99310.91;;;9.17;74.20
52855;BME280;38719;51.418;7.286;2022-11-25T04:05:11;99319.38;;;9.25;73.84
52855;BME280;38719;51.418;7.286;2022-11-25T04:07:38;99317.72;;;9.23;73.40
52855;BME280;38719;51.418;7.286;2022-11-25T04:10:07;99316.31;;;9.33;73.15
52855;BME280;38719;51.418;7.286;2022-11-25T04:12:35;99312.50;;;9.39;72.83
52855;BME280;38719;51.418;7.286;2022-11-25T04:15:14;99316.41;;;9.31;73.12
52855;BME280;38719;51.418;7.286;2022-11-25T04:17:42;99320.66;;;9.35;73.49
52855;BME280;38719;51.418;7.286;2022-11-25T04:20:12;99333.28;;;9.30;73.13
52855;BME280;38719;51.418;7.286;2022-11-25T04:22:40;99340.03;;;9.38;73.42
52855;BME280;38719;51.418;7.286;2022-11-25T04:25:08;99341.84;;;9.37;73.33
52855;BME280;38719;51.418;7.286;2022-11-25T04:27:36;99348.28;;;9.31;73.42
52855;BME280;38719;51.418;7.286;2022-11-25T04:30:04;99359.22;;;9.25;73.92
52855;BME280;38719;51.418;7.286;2022-11-25T04:32:32;99365.84;;;9.16;75.11
52855;BME280;38719;51.418;7.286;2022-11-25T04:35:00;99370.25;;;9.17;76.47
52855;BME280;38719;51.418;7.286;2022-11-25T04:37:28;99371.38;;;9.12;77.60
52855;BME280;38719;51.418;7.286;2022-11-25T04:39:56;99366.38;;;9.06;77.95
52855;BME280;38719;51.418;7.286;2022-11-25T04:42:23;99378.38;;;8.95;78.35
52855;BME280;38719;51.418;7.286;2022-11-25T04:45:03;99379.75;;;8.85;78.94
52855;BME280;38719;51.418;7.286;2022-11-25T04:47:49;99385.13;;;8.83;79.25
52855;BME280;38719;51.418;7.286;2022-11-25T04:50:19;99385.19;;;8.82;79.42
52855;BME280;38719;51.418;7.286;2022-11-25T04:52:48;99380.75;;;8.82;79.87
52855;BME280;38719;51.418;7.286;2022-11-25T04:55:16;99380.69;;;8.84;79.66
52855;BME280;38719;51.418;7.286;2022-11-25T04:57:44;99386.13;;;8.81;79.58
52855;BME280;38719;51.418;7.286;2022-11-25T05:00:12;99384.63;;;8.75;80.58
52855;BME280;38719;51.418;7.286;2022-11-25T05:02:39;99383.06;;;8.90;80.31
52855;BME280;38719;51.418;7.286;2022-11-25T05:05:07;99387.44;;;8.91;79.88
52855;BME280;38719;51.418;7.286;2022-11-25T05:07:35;99381.16;;;8.92;79.12
52855;BME280;38719;51.418;7.286;2022-11-25T05:10:06;99386.75;;;8.86;79.73
52855;BME280;38719;51.418;7.286;2022-11-25T05:12:34;99394.09;;;8.81;79.67
52855;BME280;38719;51.418;7.286;2022-11-25T05:15:02;99395.09;;;8.78;79.25
52855;BME280;38719;51.418;7.286;2022-11-25T05:17:31;99398.53;;;8.80;79.27
52855;BME280;38719;51.418;7.286;2022-11-25T05:19:59;99398.38;;;8.83;79.22
52855;BME280;38719;51.418;7.286;2022-11-25T05:22:28;99398.69;;;8.77;79.51
52855;BME280;38719;51.418;7.286;2022-11-25T05:24:57;99404.88;;;8.78;79.25
52855;BME280;38719;51.418;7.286;2022-11-25T05:27:26;99402.06;;;8.81;79.53
52855;BME280;38719;51.418;7.286;2022-11-25T05:29:53;99399.91;;;8.89;78.63
52855;BME280;38719;51.418;7.286;2022-11-25T05:32:22;99396.03;;;8.77;79.21
52855;BME280;38719;51.418;7.286;2022-11-25T05:34:49;99397.19;;;8.71;79.37
52855;BME280;38719;51.418;7.286;2022-11-25T05:37:17;99399.28;;;8.84;79.45
52855;BME280;38719;51.418;7.286;2022-11-25T05:39:50;99410.81;;;8.83;78.90
52855;BME280;38719;51.418;7.286;2022-11-25T05:42:17;99404.06;;;8.76;79.08
52855;BME280;38719;51.418;7.286;2022-11-25T05:44:46;99404.88;;;8.78;79.12
52855;BME280;38719;51.418;7.286;2022-11-25T05:47:14;99406.78;;;8.74;78.99
52855;BME280;38719;51.418;7.286;2022-11-25T05:49:41;99410.19;;;8.78;79.03
52855;BME280;38719;51.418;7.286;2022-11-25T05:52:09;99410.94;;;8.80;78.86
52855;BME280;38719;51.418;7.286;2022-11-25T05:54:37;99418.25;;;8.75;79.23
52855;BME280;38719;51.418;7.286;2022-11-25T05:57:04;99421.00;;;8.73;79.87
52855;BME280;38719;51.418;7.286;2022-11-25T05:59:32;99420.19;;;8.71;79.12
52855;BME280;38719;51.418;7.286;2022-11-25T06:02:01;99427.97;;;8.76;79.56
52855;BME280;38719;51.418;7.286;2022-11-25T06:04:28;99435.13;;;8.74;79.70
52855;BME280;38719;51.418;7.286;2022-11-25T06:06:56;99440.94;;;8.82;79.68
52855;BME280;38719;51.418;7.286;2022-11-25T06:09:23;99430.41;;;8.80;80.27
52855;BME280;38719;51.418;7.286;2022-11-25T06:11:51;99436.22;;;8.89;79.91
52855;BME280;38719;51.418;7.286;2022-11-25T06:14:18;99441.31;;;8.74;80.18
52855;BME280;38719;51.418;7.286;2022-11-25T06:16:46;99445.91;;;8.70;80.02
52855;BME280;38719;51.418;7.286;2022-11-25T06:19:15;99440.94;;;8.82;79.75
52855;BME280;38719;51.418;7.286;2022-11-25T06:21:42;99448.78;;;8.85;79.86
52855;BME280;38719;51.418;7.286;2022-11-25T06:24:10;99445.06;;;8.89;80.36
52855;BME280;38719;51.418;7.286;2022-11-25T06:26:37;99454.66;;;8.92;79.88
52855;BME280;38719;51.418;7.286;2022-11-25T06:29:05;99437.00;;;8.91;80.22
52855;BME280;38719;51.418;7.286;2022-11-25T06:31:32;99425.59;;;8.69;81.09
52855;BME280;38719;51.418;7.286;2022-11-25T06:34:00;99440.66;;;8.69;81.38
52855;BME280;38719;51.418;7.286;2022-11-25T06:36:29;99448.28;;;8.56;81.64
52855;BME280;38719;51.418;7.286;2022-11-25T06:38:56;99461.53;;;8.58;81.32
52855;BME280;38719;51.418;7.286;2022-11-25T06:41:24;99459.19;;;8.50;82.36
52855;BME280;38719;51.418;7.286;2022-11-25T06:43:51;99466.69;;;8.61;82.27
52855;BME280;38719;51.418;7.286;2022-11-25T06:46:19;99468.47;;;8.60;81.64
52855;BME280;38719;51.418;7.286;2022-11-25T06:48:51;99472.44;;;8.70;81.60
52855;BME280;38719;51.418;7.286;2022-11-25T06:51:18;99479.59;;;8.68;81.29
52855;BME280;38719;51.418;7.286;2022-11-25T06:53:47;99472.78;;;8.63;82.10
52855;BME280;38719;51.418;7.286;2022-11-25T06:56:16;99473.72;;;8.62;82.04
52855;BME280;38719;51.418;7.286;2022-11-25T06:58:45;99478.56;;;8.73;81.11
52855;BME280;38719;51.418;7.286;2022-11-25T07:01:14;99487.06;;;8.60;81.65
52855;BME280;38719;51.418;7.286;2022-11-25T07:03:44;99483.44;;;8.61;82.24
52855;BME280;38719;51.418;7.286;2022-11-25T07:06:13;99487.38;;;8.73;81.55
52855;BME280;38719;51.418;7.286;2022-11-25T07:08:41;99494.22;;;8.58;81.74
52855;BME280;38719;51.418;7.286;2022-11-25T07:11:13;99498.41;;;8.64;82.00
52855;BME280;38719;51.418;7.286;2022-11-25T07:13:42;99497.19;;;8.71;81.67
52855;BME280;38719;51.418;7.286;2022-11-25T07:16:10;99506.03;;;8.71;81.24
52855;BME280;38719;51.418;7.286;2022-11-25T07:18:39;99512.09;;;8.74;81.14
52855;BME280;38719;51.418;7.286;2022-11-25T07:21:09;99515.75;;;8.71;81.74
52855;BME280;38719;51.418;7.286;2022-11-25T07:23:37;99507.41;;;8.60;82.71
52855;BME280;38719;51.418;7.286;2022-11-25T07:26:07;99507.88;;;8.69;81.98
52855;BME280;38719;51.418;7.286;2022-11-25T07:28:37;99513.72;;;8.78;81.03
52855;BME280;38719;51.418;7.286;2022-11-25T07:31:06;99513.63;;;8.79;81.44
52855;BME280;38719;51.418;7.286;2022-11-25T07:33:55;99517.66;;;8.88;80.55
52855;BME280;38719;51.418;7.286;2022-11-25T07:36:24;99532.69;;;8.89;80.42
52855;BME280;38719;51.418;7.286;2022-11-25T07:38:52;99535.72;;;9.00;80.29
52855;BME280;38719;51.418;7.286;2022-11-25T07:41:21;99535.66;;;9.21;80.53
52855;BME280;38719;51.418;7.286;2022-11-25T07:43:53;99536.53;;;9.22;79.24
52855;BME280;38719;51.418;7.286;2022-11-25T07:46:22;99543.56;;;9.23;79.88
52855;BME280;38719;51.418;7.286;2022-11-25T07:48:54;99546.84;;;9.09;80.18
52855;BME280;38719;51.418;7.286;2022-11-25T07:51:23;99552.63;;;9.18;80.42
52855;BME280;38719;51.418;7.286;2022-11-25T07:53:52;99557.97;;;9.17;79.41
52855;BME280;38719;51.418;7.286;2022-11-25T07:56:20;99554.47;;;9.16;79.54
52855;BME280;38719;51.418;7.286;2022-11-25T07:58:48;99560.63;;;9.17;80.41
52855;BME280;38719;51.418;7.286;2022-11-25T08:01:17;99557.13;;;9.16;80.08
52855;BME280;38719;51.418;7.286;2022-11-25T08:03:47;99566.19;;;9.31;79.53
52855;BME280;38719;51.418;7.286;2022-11-25T08:06:16;99573.81;;;9.39;79.07
52855;BME280;38719;51.418;7.286;2022-11-25T08:08:44;99580.13;;;9.36;78.44
52855;BME280;38719;51.418;7.286;2022-11-25T08:11:13;99585.03;;;9.46;79.19
52855;BME280;38719;51.418;7.286;2022-11-25T08:13:41;99584.59;;;9.55;78.48
52855;BME280;38719;51.418;7.286;2022-11-25T08:16:10;99587.25;;;9.55;78.16
52855;BME280;38719;51.418;7.286;2022-11-25T08:18:40;99584.53;;;9.57;77.99
52855;BME280;38719;51.418;7.286;2022-11-25T08:21:09;99599.91;;;9.69;77.76
52855;BME280;38719;51.418;7.286;2022-11-25T08:23:39;99599.63;;;9.75;77.07
52855;BME280;38719;51.418;7.286;2022-11-25T08:26:10;99592.91;;;9.86;76.84
52855;BME280;38719;51.418;7.286;2022-11-25T08:28:39;99606.97;;;10.07;75.69
52855;BME280;38719;51.418;7.286;2022-11-25T08:31:09;99599.91;;;10.25;75.29
52855;BME280;38719;51.418;7.286;2022-11-25T08:33:39;99602.75;;;10.39;75.16
52855;BME280;38719;51.418;7.286;2022-11-25T08:36:08;99613.19;;;10.44;74.51
52855;BME280;38719;51.418;7.286;2022-11-25T08:38:35;99619.94;;;10.51;74.86
52855;BME280;38719;51.418;7.286;2022-11-25T08:41:08;99614.44;;;10.54;74.85
52855;BME280;38719;51.418;7.286;2022-11-25T08:43:36;99624.88;;;10.59;73.64
52855;BME280;38719;51.418;7.286;2022-11-25T08:46:06;99621.44;;;10.74;73.82
52855;BME280;38719;51.418;7.286;2022-11-25T08:48:34;99632.41;;;10.86;73.65
52855;BME280;38719;51.418;7.286;2022-11-25T08:51:07;99632.16;;;10.90;73.33
52855;BME280;38719;51.418;7.286;2022-11-25T08:53:36;99624.41;;;10.86;73.56
52855;BME280;38719;51.418;7.286;2022-11-25T08:56:04;99628.09;;;10.83;73.59
52855;BME280;38719;51.418;7.286;2022-11-25T08:58:32;99634.88;;;10.89;73.34
52855;BME280;38719;51.418;7.286;2022-11-25T09:01:00;99633.03;;;10.91;73.95
52855;BME280;38719;51.418;7.286;2022-11-25T09:03:31;99620.41;;;10.94;73.21
52855;BME280;38719;51.418;7.286;2022-11-25T09:05:59;99626.91;;;10.89;73.61
52855;BME280;38719;51.418;7.286;2022-11-25T09:08:28;99629.03;;;10.82;73.51
52855;BME280;38719;51.418;7.286;2022-11-25T09:10:56;99634.91;;;10.71;74.28
52855;BME280;38719;51.418;7.286;2022-11-25T09:13:24;99637.16;;;10.61;74.65
52855;BME280;38719;51.418;7.286;2022-11-25T09:15:52;99649.16;;;10.33;75.17
52855;BME280;38719;51.418;7.286;2022-11-25T09:18:19;99654.34;;;10.37;76.07
52855;BME280;38719;51.418;7.286;2022-11-25T09:20:51;99642.47;;;10.44;76.33
52855;BME280;38719;51.418;7.286;2022-11-25T09:23:19;99646.38;;;10.54;75.84
52855;BME280;38719;51.418;7.286;2022-11-25T09:25:51;99662.66;;;10.48;75.64
52855;BME280;38719;51.418;7.286;2022-11-25T09:28:19;99656.81;;;10.59;75.21
52855;BME280;38719;51.418;7.286;2022-11-25T09:30:47;99663.16;;;10.56;75.68
52855;BME280;38719;51.418;7.286;2022-11-25T09:33:16;99658.63;;;10.58;74.78
52855;BME280;38719;51.418;7.286;2022-11-25T09:35:43;99666.19;;;10.29;76.06
52855;BME280;38719;51.418;7.286;2022-11-25T09:38:11;99666.59;;;10.41;76.39
52855;BME280;38719;51.418;7.286;2022-11-25T09:40:42;99673.25;;;10.50;75.32
52855;BME280;38719;51.418;7.286;2022-11-25T09:43:28;99679.00;;;10.59;75.56
52855;BME280;38719;51.418;7.286;2022-11-25T09:46:26;99672.97;;;10.73;75.23
52855;BME280;38719;51.418;7.286;2022-11-25T09:49:18;99681.91;;;10.90;74.98
52855;BME280;38719;51.418;7.286;2022-11-25T09:51:53;99691.53;;;10.75;74.88
52855;BME280;38719;51.418;7.286;2022-11-25T09:54:29;99698.03;;;10.69;74.83
52855;BME280;38719;51.418;7.286;2022-11-25T09:57:03;99697.75;;;10.75;74.69
52855;BME280;38719;51.418;7.286;2022-11-25T09:59:41;99701.38;;;10.73;74.75
52855;BME280;38719;51.418;7.286;2022-11-25T10:02:16;99700.63;;;10.71;74.20
52855;BME280;38719;51.418;7.286;2022-11-25T10:04:50;99707.03;;;10.67;73.88
52855;BME280;38719;51.418;7.286;2022-11-25T10:07:23;99698.91;;;10.70;74.12
52855;BME280;38719;51.418;7.286;2022-11-25T10:09:54;99705.94;;;10.71;74.30
52855;BME280;38719;51.418;7.286;2022-11-25T10:12:25;99696.47;;;10.83;74.44
52855;BME280;38719;51.418;7.286;2022-11-25T10:14:58;99706.06;;;10.87;73.62
52855;BME280;38719;51.418;7.286;2022-11-25T10:17:34;99717.47;;;10.71;73.63
52855;BME280;38719;51.418;7.286;2022-11-25T10:20:09;99724.41;;;10.56;74.46
52855;BME280;38719;51.418;7.286;2022-11-25T10:22:41;99722.69;;;10.73;73.55
52855;BME280;38719;51.418;7.286;2022-11-25T10:25:13;99723.28;;;10.97;73.03
52855;BME280;38719;51.418;7.286;2022-11-25T10:27:43;99729.56;;;11.13;73.29
52855;BME280;38719;51.418;7.286;2022-11-25T10:30:17;99722.03;;;11.22;72.34
52855;BME280;38719;51.418;7.286;2022-11-25T10:32:51;99733.63;;;11.21;72.04
52855;BME280;38719;51.418;7.286;2022-11-25T10:35:30;99739.53;;;11.27;71.91
52855;BME280;38719;51.418;7.286;2022-11-25T10:38:01;99740.06;;;11.34;70.98
52855;BME280;38719;51.418;7.286;2022-11-25T10:40:31;99740.78;;;11.20;72.27
52855;BME280;38719;51.418;7.286;2022-11-25T10:43:00;99747.53;;;11.27;71.97
52855;BME280;38719;51.418;7.286;2022-11-25T10:45:40;99747.03;;;11.37;71.87
52855;BME280;38719;51.418;7.286;2022-11-25T10:48:28;99736.53;;;11.51;70.96
52855;BME280;38719;51.418;7.286;2022-11-25T10:51:22;99744.28;;;11.56;71.59
52855;BME280;38719;51.418;7.286;2022-11-25T10:54:08;99747.81;;;11.56;71.20
52855;BME280;38719;51.418;7.286;2022-11-25T10:56:42;99752.91;;;11.61;71.43
52855;BME280;38719;51.418;7.286;2022-11-25T10:59:21;99755.06;;;11.70;70.49
52855;BME280;38719;51.418;7.286;2022-11-25T11:01:52;99763.03;;;11.54;70.30
52855;BME280;38719;51.418;7.286;2022-11-25T11:04:20;99755.50;;;11.45;71.46
52855;BME280;38719;51.418;7.286;2022-11-25T11:06:49;99761.47;;;11.50;71.69
52855;BME280;38719;51.418;7.286;2022-11-25T11:09:32;99757.06;;;11.49;71.19
52855;BME280;38719;51.418;7.286;2022-11-25T11:12:12;99762.56;;;11.46;71.06
52855;BME280;38719;51.418;7.286;2022-11-25T11:14:40;99767.88;;;11.28;71.75
52855;BME280;38719;51.418;7.286;2022-11-25T11:17:25;99763.13;;;11.35;71.63
52855;BME280;38719;51.418;7.286;2022-11-25T11:20:14;99773.69;;;11.37;71.64
52855;BME280;38719;51.418;7.286;2022-11-25T11:22:48;99779.50;;;11.45;72.04
52855;BME280;38719;51.418;7.286;2022-11-25T11:25:28;99775.44;;;11.38;71.49
52855;BME280;38719;51.418;7.286;2022-11-25T11:27:56;99776.84;;;11.45;71.89
52855;BME280;38719;51.418;7.286;2022-11-25T11:30:25;99781.56;;;11.40;71.84
52855;BME280;38719;51.418;7.286;2022-11-25T11:32:58;99780.91;;;11.17;72.43
52855;BME280;38719;51.418;7.286;2022-11-25T11:35:34;99792.97;;;11.24;72.35
52855;BME280;38719;51.418;7.286;2022-11-25T11:38:19;99789.38;;;11.43;71.26
52855;BME280;38719;51.418;7.286;2022-11-25T11:40:53;99784.75;;;11.64;70.99
52855;BME280;38719;51.418;7.286;2022-11-25T11:43:32;99794.25;;;11.52;71.16
52855;BME280;38719;51.418;7.286;2022-11-25T11:46:12;99793.06;;;11.58;71.50
52855;BME280;38719;51.418;7.286;2022-11-25T11:48:49;99790.72;;;11.52;71.99
52855;BME280;38719;51.418;7.286;2022-11-25T11:51:25;99793.53;;;11.66;70.78
52855;BME280;38719;51.418;7.286;2022-11-25T11:54:03;99786.06;;;11.73;70.50
52855;BME280;38719;51.418;7.286;2022-11-25T11:56:36;99787.31;;;11.83;70.43
52855;BME280;38719;51.418;7.286;2022-11-25T12:02:12;99790.06;;;11.64;70.33
52855;BME280;38719;51.418;7.286;2022-11-25T12:04:46;99799.34;;;11.74;70.30
52855;BME280;38719;51.418;7.286;2022-11-25T12:07:20;99797.75;;;11.70;70.44
52855;BME280;38719;51.418;7.286;2022-11-25T12:09:54;99803.56;;;11.78;69.90
52855;BME280;38719;51.418;7.286;2022-11-25T12:12:29;99808.50;;;11.69;70.85
52855;BME280;38719;51.418;7.286;2022-11-25T12:15:00;99806.78;;;11.68;70.22
52855;BME280;38719;51.418;7.286;2022-11-25T12:17:35;99810.06;;;11.73;71.02
52855;BME280;38719;51.418;7.286;2022-11-25T12:20:14;99815.22;;;11.93;70.65
52855;BME280;38719;51.418;7.286;2022-11-25T12:22:48;99811.88;;;11.90;70.72
52855;BME280;38719;51.418;7.286;2022-11-25T12:25:20;99810.31;;;12.03;69.87
52855;BME280;38719;51.418;7.286;2022-11-25T12:27:53;99815.34;;;12.25;69.62
52855;BME280;38719;51.418;7.286;2022-11-25T12:30:29;99815.88;;;12.32;69.81
52855;BME280;38719;51.418;7.286;2022-11-25T12:33:04;99818.16;;;12.40;68.42
52855;BME280;38719;51.418;7.286;2022-11-25T12:35:48;99833.09;;;12.27;69.22
52855;BME280;38719;51.418;7.286;2022-11-25T12:38:24;99830.34;;;12.28;69.25
52855;BME280;38719;51.418;7.286;2022-11-25T12:40:59;99831.97;;;11.97;69.96
52855;BME280;38719;51.418;7.286;2022-11-25T12:43:32;99841.81;;;12.13;69.42
52855;BME280;38719;51.418;7.286;2022-11-25T12:46:15;99853.38;;;12.13;68.90
52855;BME280;38719;51.418;7.286;2022-11-25T12:48:45;99849.28;;;12.23;68.00
52855;BME280;38719;51.418;7.286;2022-11-25T12:54:17;99856.34;;;12.24;69.20
52855;BME280;38719;51.418;7.286;2022-11-25T12:56:59;99857.13;;;12.27;68.28
52855;BME280;38719;51.418;7.286;2022-11-25T12:59:41;99858.63;;;12.15;68.83
52855;BME280;38719;51.418;7.286;2022-11-25T13:02:34;99865.03;;;12.28;68.25
52855;BME280;38719;51.418;7.286;2022-11-25T13:05:24;99864.44;;;12.23;68.98
52855;BME280;38719;51.418;7.286;2022-11-25T13:08:18;99878.50;;;12.27;68.10
52855;BME280;38719;51.418;7.286;2022-11-25T13:11:06;99872.31;;;12.42;68.52
52855;BME280;38719;51.418;7.286;2022-11-25T13:13:46;99874.94;;;12.26;67.76
52855;BME280;38719;51.418;7.286;2022-11-25T13:16:18;99882.25;;;12.22;69.28
52855;BME280;38719;51.418;7.286;2022-11-25T13:18:47;99887.84;;;12.18;68.85
52855;BME280;38719;51.418;7.286;2022-11-25T13:21:16;99884.69;;;12.27;68.17
52855;BME280;38719;51.418;7.286;2022-11-25T13:23:48;99897.09;;;12.28;68.67
52855;BME280;38719;51.418;7.286;2022-11-25T13:26:45;99895.91;;;12.16;67.37
52855;BME280;38719;51.418;7.286;2022-11-25T13:32:36;99891.00;;;12.42;67.49
52855;BME280;38719;51.418;7.286;2022-11-25T13:35:48;99893.09;;;12.53;66.70
52855;BME280;38719;51.418;7.286;2022-11-25T13:38:57;99903.59;;;12.22;66.95